sensor_id;sensor_type;location;lat;lon;timestamp;temperature;humidity
66144;SHT31;52947;50.842;6.084;2023-03-05T00:00:27;4.08;79.96
66144;SHT31;52947;50.842;6.084;2023-03-05T00:02:55;4.13;79.44
66144;SHT31;52947;50.842;6.084;2023-03-05T00:05:23;4.10;79.63
66144;SHT31;52947;50.842;6.084;2023-03-05T00:07:51;4.06;80.03
66144;SHT31;52947;50.842;6.084;2023-03-05T00:10:19;4.07;80.15
66144;SHT31;52947;50.842;6.084;2023-03-05T00:12:48;4.04;80.23
66144;SHT31;52947;50.842;6.084;2023-03-05T00:15:16;4.06;80.45
66144;SHT31;52947;50.842;6.084;2023-03-05T00:17:44;4.01;80.45
66144;SHT31;52947;50.842;6.084;2023-03-05T00:20:12;4.08;80.08
66144;SHT31;52947;50.842;6.084;2023-03-05T00:22:40;4.06;80.22
66144;SHT31;52947;50.842;6.084;2023-03-05T00:25:08;4.07;80.09
66144;SHT31;52947;50.842;6.084;2023-03-05T00:27:36;4.04;80.21
66144;SHT31;52947;50.842;6.084;2023-03-05T00:30:09;4.00;80.52
66144;SHT31;52947;50.842;6.084;2023-03-05T00:32:37;4.01;80.62
66144;SHT31;52947;50.842;6.084;2023-03-05T00:35:06;3.97;80.80
66144;SHT31;52947;50.842;6.084;2023-03-05T00:37:34;3.90;80.98
66144;SHT31;52947;50.842;6.084;2023-03-05T00:40:03;3.89;81.21
66144;SHT31;52947;50.842;6.084;2023-03-05T00:42:31;3.89;81.30
66144;SHT31;52947;50.842;6.084;2023-03-05T00:45:05;3.89;81.37
66144;SHT31;52947;50.842;6.084;2023-03-05T00:47:34;3.87;81.31
66144;SHT31;52947;50.842;6.084;2023-03-05T00:50:04;3.87;81.26
66144;SHT31;52947;50.842;6.084;2023-03-05T00:52:32;3.90;81.44
66144;SHT31;52947;50.842;6.084;2023-03-05T00:55:01;3.93;81.30
66144;SHT31;52947;50.842;6.084;2023-03-05T00:57:29;3.94;81.25
66144;SHT31;52947;50.842;6.084;2023-03-05T00:59:57;3.97;81.18
66144;SHT31;52947;50.842;6.084;2023-03-05T01:02:25;3.97;81.20
66144;SHT31;52947;50.842;6.084;2023-03-05T01:04:54;4.00;81.24
66144;SHT31;52947;50.842;6.084;2023-03-05T01:07:22;4.00;81.15
66144;SHT31;52947;50.842;6.084;2023-03-05T01:09:50;3.98;81.17
66144;SHT31;52947;50.842;6.084;2023-03-05T01:12:18;5.03;92.87
66144;SHT31;52947;50.842;6.084;2023-03-05T01:14:46;5.91;90.45
66144;SHT31;52947;50.842;6.084;2023-03-05T01:17:14;5.81;84.64
66144;SHT31;52947;50.842;6.084;2023-03-05T01:19:42;6.03;86.66
66144;SHT31;52947;50.842;6.084;2023-03-05T01:22:11;6.47;82.78
66144;SHT31;52947;50.842;6.084;2023-03-05T01:24:39;6.76;82.17
66144;SHT31;52947;50.842;6.084;2023-03-05T01:27:07;7.01;81.81
66144;SHT31;52947;50.842;6.084;2023-03-05T01:29:36;7.35;79.41
66144;SHT31;52947;50.842;6.084;2023-03-05T01:32:04;7.51;80.45
66144;SHT31;52947;50.842;6.084;2023-03-05T01:34:32;7.14;78.42
66144;SHT31;52947;50.842;6.084;2023-03-05T01:37:02;6.85;80.22
66144;SHT31;52947;50.842;6.084;2023-03-05T01:39:32;7.02;79.16
66144;SHT31;52947;50.842;6.084;2023-03-05T01:41:59;7.36;78.00
66144;SHT31;52947;50.842;6.084;2023-03-05T01:44:29;7.46;79.11
66144;SHT31;52947;50.842;6.084;2023-03-05T01:46:57;7.15;76.62
66144;SHT31;52947;50.842;6.084;2023-03-05T01:49:26;7.56;79.10
66144;SHT31;52947;50.842;6.084;2023-03-05T01:52:02;7.35;76.11
66144;SHT31;52947;50.842;6.084;2023-03-05T01:54:35;7.45;78.52
66144;SHT31;52947;50.842;6.084;2023-03-05T01:57:08;7.48;77.23
66144;SHT31;52947;50.842;6.084;2023-03-05T01:59:38;7.59;76.02
66144;SHT31;52947;50.842;6.084;2023-03-05T02:02:07;7.26;76.69
66144;SHT31;52947;50.842;6.084;2023-03-05T02:04:39;6.80;76.68
66144;SHT31;52947;50.842;6.084;2023-03-05T02:07:11;7.11;78.01
66144;SHT31;52947;50.842;6.084;2023-03-05T02:09:41;6.90;77.12
66144;SHT31;52947;50.842;6.084;2023-03-05T02:12:10;6.95;78.00
66144;SHT31;52947;50.842;6.084;2023-03-05T02:14:40;7.04;79.35
66144;SHT31;52947;50.842;6.084;2023-03-05T02:17:10;6.77;77.10
66144;SHT31;52947;50.842;6.084;2023-03-05T02:19:46;7.15;79.59
66144;SHT31;52947;50.842;6.084;2023-03-05T02:22:16;7.29;78.41
66144;SHT31;52947;50.842;6.084;2023-03-05T02:24:45;7.35;78.65
66144;SHT31;52947;50.842;6.084;2023-03-05T02:27:13;7.25;74.81
66144;SHT31;52947;50.842;6.084;2023-03-05T02:29:44;7.02;77.76
66144;SHT31;52947;50.842;6.084;2023-03-05T02:32:12;6.84;78.65
66144;SHT31;52947;50.842;6.084;2023-03-05T02:34:40;6.53;77.58
66144;SHT31;52947;50.842;6.084;2023-03-05T02:37:09;7.09;79.12
66144;SHT31;52947;50.842;6.084;2023-03-05T02:39:39;6.80;75.47
66144;SHT31;52947;50.842;6.084;2023-03-05T02:42:08;7.04;79.60
66144;SHT31;52947;50.842;6.084;2023-03-05T02:44:37;7.09;77.87
66144;SHT31;52947;50.842;6.084;2023-03-05T02:47:05;7.19;79.54
66144;SHT31;52947;50.842;6.084;2023-03-05T02:49:34;7.21;77.62
66144;SHT31;52947;50.842;6.084;2023-03-05T02:52:02;7.53;79.13
66144;SHT31;52947;50.842;6.084;2023-03-05T02:54:30;7.25;76.77
66144;SHT31;52947;50.842;6.084;2023-03-05T02:56:59;7.12;79.61
66144;SHT31;52947;50.842;6.084;2023-03-05T02:59:27;7.25;79.96
66144;SHT31;52947;50.842;6.084;2023-03-05T03:01:55;7.70;77.81
66144;SHT31;52947;50.842;6.084;2023-03-05T03:04:23;7.51;78.56
66144;SHT31;52947;50.842;6.084;2023-03-05T03:06:51;7.62;76.24
66144;SHT31;52947;50.842;6.084;2023-03-05T03:09:19;7.41;77.85
66144;SHT31;52947;50.842;6.084;2023-03-05T03:11:47;7.16;77.32
66144;SHT31;52947;50.842;6.084;2023-03-05T03:14:16;7.58;78.73
66144;SHT31;52947;50.842;6.084;2023-03-05T03:16:47;7.22;76.98
66144;SHT31;52947;50.842;6.084;2023-03-05T03:19:15;7.21;76.11
66144;SHT31;52947;50.842;6.084;2023-03-05T03:21:43;7.19;78.68
66144;SHT31;52947;50.842;6.084;2023-03-05T03:24:11;7.11;77.58
66144;SHT31;52947;50.842;6.084;2023-03-05T03:26:38;6.95;77.63
66144;SHT31;52947;50.842;6.084;2023-03-05T03:29:06;6.76;77.38
66144;SHT31;52947;50.842;6.084;2023-03-05T03:31:36;6.85;77.87
66144;SHT31;52947;50.842;6.084;2023-03-05T03:34:06;6.50;77.93
66144;SHT31;52947;50.842;6.084;2023-03-05T03:36:34;6.67;78.99
66144;SHT31;52947;50.842;6.084;2023-03-05T03:39:02;6.70;78.64
66144;SHT31;52947;50.842;6.084;2023-03-05T03:41:31;6.26;78.28
66144;SHT31;52947;50.842;6.084;2023-03-05T03:43:59;6.64;80.14
66144;SHT31;52947;50.842;6.084;2023-03-05T03:46:28;6.57;78.11
66144;SHT31;52947;50.842;6.084;2023-03-05T03:48:58;6.77;79.27
66144;SHT31;52947;50.842;6.084;2023-03-05T03:51:26;6.58;78.09
66144;SHT31;52947;50.842;6.084;2023-03-05T03:53:54;6.74;79.01
66144;SHT31;52947;50.842;6.084;2023-03-05T03:56:22;6.97;79.55
66144;SHT31;52947;50.842;6.084;2023-03-05T03:58:50;6.93;77.81
66144;SHT31;52947;50.842;6.084;2023-03-05T04:01:19;6.97;79.74
66144;SHT31;52947;50.842;6.084;2023-03-05T04:03:47;7.15;78.19
66144;SHT31;52947;50.842;6.084;2023-03-05T04:06:16;7.01;76.77
66144;SHT31;52947;50.842;6.084;2023-03-05T04:08:44;6.98;76.80
66144;SHT31;52947;50.842;6.084;2023-03-05T04:11:12;6.74;77.94
66144;SHT31;52947;50.842;6.084;2023-03-05T04:13:41;6.81;78.97
66144;SHT31;52947;50.842;6.084;2023-03-05T04:16:09;6.50;78.25
66144;SHT31;52947;50.842;6.084;2023-03-05T04:18:37;6.40;78.10
66144;SHT31;52947;50.842;6.084;2023-03-05T04:21:05;6.12;78.99
66144;SHT31;52947;50.842;6.084;2023-03-05T04:23:37;6.29;78.95
66144;SHT31;52947;50.842;6.084;2023-03-05T04:26:05;6.46;79.51
66144;SHT31;52947;50.842;6.084;2023-03-05T04:28:33;6.57;79.06
66144;SHT31;52947;50.842;6.084;2023-03-05T04:31:01;6.60;78.63
66144;SHT31;52947;50.842;6.084;2023-03-05T04:33:29;6.49;77.93
66144;SHT31;52947;50.842;6.084;2023-03-05T04:35:57;6.43;77.94
66144;SHT31;52947;50.842;6.084;2023-03-05T04:38:25;6.47;79.44
66144;SHT31;52947;50.842;6.084;2023-03-05T04:40:54;6.43;78.55
66144;SHT31;52947;50.842;6.084;2023-03-05T04:43:22;6.44;79.25
66144;SHT31;52947;50.842;6.084;2023-03-05T04:45:50;6.46;79.12
66144;SHT31;52947;50.842;6.084;2023-03-05T04:48:18;6.26;77.70
66144;SHT31;52947;50.842;6.084;2023-03-05T04:50:46;6.32;77.89
66144;SHT31;52947;50.842;6.084;2023-03-05T04:53:13;6.34;80.13
66144;SHT31;52947;50.842;6.084;2023-03-05T04:55:41;6.46;79.37
66144;SHT31;52947;50.842;6.084;2023-03-05T04:58:11;6.76;79.02
66144;SHT31;52947;50.842;6.084;2023-03-05T05:00:39;6.84;78.79
66144;SHT31;52947;50.842;6.084;2023-03-05T05:03:07;6.66;77.17
66144;SHT31;52947;50.842;6.084;2023-03-05T05:05:35;6.62;77.91
66144;SHT31;52947;50.842;6.084;2023-03-05T05:08:03;6.70;78.82
66144;SHT31;52947;50.842;6.084;2023-03-05T05:10:32;7.11;78.30
66144;SHT31;52947;50.842;6.084;2023-03-05T05:12:59;6.97;77.79
66144;SHT31;52947;50.842;6.084;2023-03-05T05:15:29;6.84;77.44
66144;SHT31;52947;50.842;6.084;2023-03-05T05:17:57;7.18;76.62
66144;SHT31;52947;50.842;6.084;2023-03-05T05:20:25;7.16;77.37
66144;SHT31;52947;50.842;6.084;2023-03-05T05:22:53;7.28;77.30
66144;SHT31;52947;50.842;6.084;2023-03-05T05:25:21;7.58;77.25
66144;SHT31;52947;50.842;6.084;2023-03-05T05:27:49;7.38;75.58
66144;SHT31;52947;50.842;6.084;2023-03-05T05:30:16;7.00;75.25
66144;SHT31;52947;50.842;6.084;2023-03-05T05:32:46;6.67;77.67
66144;SHT31;52947;50.842;6.084;2023-03-05T05:35:14;6.73;77.14
66144;SHT31;52947;50.842;6.084;2023-03-05T05:37:41;6.80;77.81
66144;SHT31;52947;50.842;6.084;2023-03-05T05:40:10;7.09;77.76
66144;SHT31;52947;50.842;6.084;2023-03-05T05:42:38;7.05;76.29
66144;SHT31;52947;50.842;6.084;2023-03-05T05:45:07;7.14;77.00
66144;SHT31;52947;50.842;6.084;2023-03-05T05:47:36;6.88;76.95
66144;SHT31;52947;50.842;6.084;2023-03-05T05:50:05;6.67;77.26
66144;SHT31;52947;50.842;6.084;2023-03-05T05:52:34;6.54;76.65
66144;SHT31;52947;50.842;6.084;2023-03-05T05:55:02;6.43;79.28
66144;SHT31;52947;50.842;6.084;2023-03-05T05:57:30;6.30;79.08
66144;SHT31;52947;50.842;6.084;2023-03-05T05:59:58;6.42;79.19
66144;SHT31;52947;50.842;6.084;2023-03-05T06:02:26;6.62;79.25
66144;SHT31;52947;50.842;6.084;2023-03-05T06:04:55;6.70;78.35
66144;SHT31;52947;50.842;6.084;2023-03-05T06:07:25;6.76;76.67
66144;SHT31;52947;50.842;6.084;2023-03-05T06:09:53;7.05;77.82
66144;SHT31;52947;50.842;6.084;2023-03-05T06:12:21;6.97;76.95
66144;SHT31;52947;50.842;6.084;2023-03-05T06:14:49;6.88;77.15
66144;SHT31;52947;50.842;6.084;2023-03-05T06:17:17;6.91;77.98
66144;SHT31;52947;50.842;6.084;2023-03-05T06:19:56;6.95;76.55
66144;SHT31;52947;50.842;6.084;2023-03-05T06:22:25;6.80;77.69
66144;SHT31;52947;50.842;6.084;2023-03-05T06:24:53;6.70;78.23
66144;SHT31;52947;50.842;6.084;2023-03-05T06:27:21;6.62;78.38
66144;SHT31;52947;50.842;6.084;2023-03-05T06:29:51;6.52;77.12
66144;SHT31;52947;50.842;6.084;2023-03-05T06:32:19;6.64;78.71
66144;SHT31;52947;50.842;6.084;2023-03-05T06:34:47;6.83;77.98
66144;SHT31;52947;50.842;6.084;2023-03-05T06:37:15;7.11;77.71
66144;SHT31;52947;50.842;6.084;2023-03-05T06:39:44;6.97;77.16
66144;SHT31;52947;50.842;6.084;2023-03-05T06:42:12;6.93;77.81
66144;SHT31;52947;50.842;6.084;2023-03-05T06:44:40;6.83;77.39
66144;SHT31;52947;50.842;6.084;2023-03-05T06:47:08;6.69;77.31
66144;SHT31;52947;50.842;6.084;2023-03-05T06:49:37;6.19;78.13
66144;SHT31;52947;50.842;6.084;2023-03-05T06:52:06;5.67;78.99
66144;SHT31;52947;50.842;6.084;2023-03-05T06:54:35;5.23;81.02
66144;SHT31;52947;50.842;6.084;2023-03-05T06:57:04;5.27;81.00
66144;SHT31;52947;50.842;6.084;2023-03-05T06:59:32;4.99;82.64
66144;SHT31;52947;50.842;6.084;2023-03-05T07:02:00;4.82;82.18
66144;SHT31;52947;50.842;6.084;2023-03-05T07:04:28;4.71;82.80
66144;SHT31;52947;50.842;6.084;2023-03-05T07:06:56;4.55;83.27
66144;SHT31;52947;50.842;6.084;2023-03-05T07:09:26;4.76;84.58
66144;SHT31;52947;50.842;6.084;2023-03-05T07:11:53;4.93;82.73
66144;SHT31;52947;50.842;6.084;2023-03-05T07:14:23;5.13;82.85
66144;SHT31;52947;50.842;6.084;2023-03-05T07:16:50;4.89;82.62
66144;SHT31;52947;50.842;6.084;2023-03-05T07:19:18;4.89;82.19
66144;SHT31;52947;50.842;6.084;2023-03-05T07:21:46;4.69;83.33
66144;SHT31;52947;50.842;6.084;2023-03-05T07:24:14;4.68;83.12
66144;SHT31;52947;50.842;6.084;2023-03-05T07:26:42;4.89;83.09
66144;SHT31;52947;50.842;6.084;2023-03-05T07:29:10;4.85;82.69
66144;SHT31;52947;50.842;6.084;2023-03-05T07:31:39;4.86;83.46
66144;SHT31;52947;50.842;6.084;2023-03-05T07:34:08;4.83;82.74
66144;SHT31;52947;50.842;6.084;2023-03-05T07:36:36;4.64;82.40
66144;SHT31;52947;50.842;6.084;2023-03-05T07:39:04;4.68;82.86
66144;SHT31;52947;50.842;6.084;2023-03-05T07:41:33;4.78;83.77
66144;SHT31;52947;50.842;6.084;2023-03-05T07:44:00;4.99;83.92
66144;SHT31;52947;50.842;6.084;2023-03-05T07:46:31;5.46;82.44
66144;SHT31;52947;50.842;6.084;2023-03-05T07:49:00;5.92;80.70
66144;SHT31;52947;50.842;6.084;2023-03-05T07:51:29;6.32;80.43
66144;SHT31;52947;50.842;6.084;2023-03-05T07:53:57;6.29;79.07
66144;SHT31;52947;50.842;6.084;2023-03-05T07:56:27;6.42;78.91
66144;SHT31;52947;50.842;6.084;2023-03-05T07:58:57;6.70;78.97
66144;SHT31;52947;50.842;6.084;2023-03-05T08:01:26;6.83;77.98
66144;SHT31;52947;50.842;6.084;2023-03-05T08:03:53;6.77;78.47
66144;SHT31;52947;50.842;6.084;2023-03-05T08:06:23;7.00;78.00
66144;SHT31;52947;50.842;6.084;2023-03-05T08:08:50;7.15;77.11
66144;SHT31;52947;50.842;6.084;2023-03-05T08:11:19;6.83;76.33
66144;SHT31;52947;50.842;6.084;2023-03-05T08:13:47;6.88;78.88
66144;SHT31;52947;50.842;6.084;2023-03-05T08:16:17;6.93;76.68
66144;SHT31;52947;50.842;6.084;2023-03-05T08:18:46;6.94;78.63
66144;SHT31;52947;50.842;6.084;2023-03-05T08:21:16;6.64;77.63
66144;SHT31;52947;50.842;6.084;2023-03-05T08:23:45;6.57;77.98
66144;SHT31;52947;50.842;6.084;2023-03-05T08:26:14;6.85;78.80
66144;SHT31;52947;50.842;6.084;2023-03-05T08:28:43;7.02;77.98
66144;SHT31;52947;50.842;6.084;2023-03-05T08:31:13;7.12;76.67
66144;SHT31;52947;50.842;6.084;2023-03-05T08:33:41;7.11;77.21
66144;SHT31;52947;50.842;6.084;2023-03-05T08:36:09;7.22;77.02
66144;SHT31;52947;50.842;6.084;2023-03-05T08:38:37;6.76;77.97
66144;SHT31;52947;50.842;6.084;2023-03-05T08:41:06;6.76;78.62
66144;SHT31;52947;50.842;6.084;2023-03-05T08:43:34;6.50;78.01
66144;SHT31;52947;50.842;6.084;2023-03-05T08:46:02;6.58;78.19
66144;SHT31;52947;50.842;6.084;2023-03-05T08:48:30;6.16;78.28
66144;SHT31;52947;50.842;6.084;2023-03-05T08:51:04;6.77;78.79
66144;SHT31;52947;50.842;6.084;2023-03-05T08:53:32;6.79;77.99
66144;SHT31;52947;50.842;6.084;2023-03-05T08:56:00;5.99;79.58
66144;SHT31;52947;50.842;6.084;2023-03-05T08:58:29;5.88;79.85
66144;SHT31;52947;50.842;6.084;2023-03-05T09:00:57;6.02;81.12
66144;SHT31;52947;50.842;6.084;2023-03-05T09:03:25;6.13;80.43
66144;SHT31;52947;50.842;6.084;2023-03-05T09:05:58;6.29;80.15
66144;SHT31;52947;50.842;6.084;2023-03-05T09:08:26;6.32;79.96
66144;SHT31;52947;50.842;6.084;2023-03-05T09:10:55;6.52;80.66
66144;SHT31;52947;50.842;6.084;2023-03-05T09:13:23;6.87;79.03
66144;SHT31;52947;50.842;6.084;2023-03-05T09:15:56;7.14;78.40
66144;SHT31;52947;50.842;6.084;2023-03-05T09:18:24;7.08;78.06
66144;SHT31;52947;50.842;6.084;2023-03-05T09:20:53;7.26;78.30
66144;SHT31;52947;50.842;6.084;2023-03-05T09:23:21;6.88;77.95
66144;SHT31;52947;50.842;6.084;2023-03-05T09:25:49;6.90;78.85
66144;SHT31;52947;50.842;6.084;2023-03-05T09:28:17;6.93;78.79
66144;SHT31;52947;50.842;6.084;2023-03-05T09:30:45;7.02;77.78
66144;SHT31;52947;50.842;6.084;2023-03-05T09:33:15;6.84;77.87
66144;SHT31;52947;50.842;6.084;2023-03-05T09:35:42;6.85;78.84
66144;SHT31;52947;50.842;6.084;2023-03-05T09:38:10;7.07;78.30
66144;SHT31;52947;50.842;6.084;2023-03-05T09:40:44;6.66;78.98
66144;SHT31;52947;50.842;6.084;2023-03-05T09:43:22;6.42;79.44
66144;SHT31;52947;50.842;6.084;2023-03-05T09:46:05;6.47;79.98
66144;SHT31;52947;50.842;6.084;2023-03-05T09:48:48;6.40;81.29
66144;SHT31;52947;50.842;6.084;2023-03-05T09:51:20;6.63;81.03
66144;SHT31;52947;50.842;6.084;2023-03-05T09:53:52;6.81;79.59
66144;SHT31;52947;50.842;6.084;2023-03-05T09:56:25;6.60;80.44
66144;SHT31;52947;50.842;6.084;2023-03-05T09:58:58;6.98;80.51
66144;SHT31;52947;50.842;6.084;2023-03-05T10:01:35;7.42;78.85
66144;SHT31;52947;50.842;6.084;2023-03-05T10:04:10;7.55;78.36
66144;SHT31;52947;50.842;6.084;2023-03-05T10:06:44;7.86;77.97
66144;SHT31;52947;50.842;6.084;2023-03-05T10:09:17;8.00;76.97
66144;SHT31;52947;50.842;6.084;2023-03-05T10:11:52;7.91;76.50
66144;SHT31;52947;50.842;6.084;2023-03-05T10:14:25;7.97;77.92
66144;SHT31;52947;50.842;6.084;2023-03-05T10:17:34;8.23;77.42
66144;SHT31;52947;50.842;6.084;2023-03-05T10:23:28;8.06;76.84
66144;SHT31;52947;50.842;6.084;2023-03-05T10:26:05;7.73;77.53
66144;SHT31;52947;50.842;6.084;2023-03-05T10:28:41;7.66;78.63
66144;SHT31;52947;50.842;6.084;2023-03-05T10:31:39;7.58;78.65
66144;SHT31;52947;50.842;6.084;2023-03-05T10:34:31;7.42;78.65
66144;SHT31;52947;50.842;6.084;2023-03-05T10:37:27;7.45;78.65
66144;SHT31;52947;50.842;6.084;2023-03-05T10:40:10;7.05;77.76
66144;SHT31;52947;50.842;6.084;2023-03-05T10:42:46;7.21;78.72
66144;SHT31;52947;50.842;6.084;2023-03-05T10:45:20;7.26;78.09
66144;SHT31;52947;50.842;6.084;2023-03-05T10:47:53;7.43;79.57
66144;SHT31;52947;50.842;6.084;2023-03-05T10:50:23;7.52;78.47
66144;SHT31;52947;50.842;6.084;2023-03-05T10:53:09;7.75;77.78
66144;SHT31;52947;50.842;6.084;2023-03-05T10:55:41;7.98;77.55
66144;SHT31;52947;50.842;6.084;2023-03-05T10:58:11;8.21;76.95
66144;SHT31;52947;50.842;6.084;2023-03-05T11:00:40;8.18;76.81
66144;SHT31;52947;50.842;6.084;2023-03-05T11:03:24;8.37;76.52
66144;SHT31;52947;50.842;6.084;2023-03-05T11:05:58;8.34;74.98
66144;SHT31;52947;50.842;6.084;2023-03-05T11:08:31;8.58;75.04
66144;SHT31;52947;50.842;6.084;2023-03-05T11:11:18;8.38;75.82
66144;SHT31;52947;50.842;6.084;2023-03-05T11:13:53;8.37;75.73
66144;SHT31;52947;50.842;6.084;2023-03-05T11:16:23;8.38;75.26
66144;SHT31;52947;50.842;6.084;2023-03-05T11:19:14;8.33;75.32
66144;SHT31;52947;50.842;6.084;2023-03-05T11:21:44;8.14;75.51
66144;SHT31;52947;50.842;6.084;2023-03-05T11:24:13;8.01;75.59
66144;SHT31;52947;50.842;6.084;2023-03-05T11:26:48;7.70;75.74
66144;SHT31;52947;50.842;6.084;2023-03-05T11:29:20;7.49;76.91
66144;SHT31;52947;50.842;6.084;2023-03-05T11:31:48;7.86;76.94
66144;SHT31;52947;50.842;6.084;2023-03-05T11:34:28;8.08;76.28
66144;SHT31;52947;50.842;6.084;2023-03-05T11:37:03;7.83;76.57
66144;SHT31;52947;50.842;6.084;2023-03-05T11:39:33;7.70;77.00
66144;SHT31;52947;50.842;6.084;2023-03-05T11:42:09;7.65;76.33
66144;SHT31;52947;50.842;6.084;2023-03-05T11:44:45;7.76;75.74
66144;SHT31;52947;50.842;6.084;2023-03-05T11:47:19;7.98;76.61
66144;SHT31;52947;50.842;6.084;2023-03-05T11:49:53;8.00;75.26
66144;SHT31;52947;50.842;6.084;2023-03-05T11:52:24;8.03;74.60
66144;SHT31;52947;50.842;6.084;2023-03-05T11:54:59;7.96;75.28
66144;SHT31;52947;50.842;6.084;2023-03-05T11:57:40;8.04;75.31
66144;SHT31;52947;50.842;6.084;2023-03-05T12:00:13;8.40;75.48
66144;SHT31;52947;50.842;6.084;2023-03-05T12:02:42;8.07;74.00
66144;SHT31;52947;50.842;6.084;2023-03-05T12:05:13;8.03;75.41
66144;SHT31;52947;50.842;6.084;2023-03-05T12:07:44;7.97;75.51
66144;SHT31;52947;50.842;6.084;2023-03-05T12:10:15;7.98;74.17
66144;SHT31;52947;50.842;6.084;2023-03-05T12:12:50;8.11;74.76
66144;SHT31;52947;50.842;6.084;2023-03-05T12:15:38;8.21;74.60
66144;SHT31;52947;50.842;6.084;2023-03-05T12:18:17;8.23;75.09
66144;SHT31;52947;50.842;6.084;2023-03-05T12:20:55;8.20;75.31
66144;SHT31;52947;50.842;6.084;2023-03-05T12:23:24;7.77;74.54
66144;SHT31;52947;50.842;6.084;2023-03-05T12:25:54;7.15;76.47
66144;SHT31;52947;50.842;6.084;2023-03-05T12:28:57;7.08;77.27
66144;SHT31;52947;50.842;6.084;2023-03-05T12:31:37;7.53;78.22
66144;SHT31;52947;50.842;6.084;2023-03-05T12:34:35;7.75;77.31
66144;SHT31;52947;50.842;6.084;2023-03-05T12:37:03;7.55;77.62
66144;SHT31;52947;50.842;6.084;2023-03-05T12:39:50;8.07;77.09
66144;SHT31;52947;50.842;6.084;2023-03-05T12:45:35;7.58;76.84
66144;SHT31;52947;50.842;6.084;2023-03-05T12:51:30;7.52;76.97
66144;SHT31;52947;50.842;6.084;2023-03-05T12:54:30;7.49;77.51
66144;SHT31;52947;50.842;6.084;2023-03-05T12:56:59;7.75;76.74
66144;SHT31;52947;50.842;6.084;2023-03-05T12:59:35;7.86;76.52
66144;SHT31;52947;50.842;6.084;2023-03-05T13:02:18;7.61;75.06
66144;SHT31;52947;50.842;6.084;2023-03-05T13:04:47;7.49;75.64
66144;SHT31;52947;50.842;6.084;2023-03-05T13:07:18;7.07;76.06
66144;SHT31;52947;50.842;6.084;2023-03-05T13:09:53;6.98;77.27
66144;SHT31;52947;50.842;6.084;2023-03-05T13:12:22;6.62;77.73
66144;SHT31;52947;50.842;6.084;2023-03-05T13:14:55;6.62;77.26
66144;SHT31;52947;50.842;6.084;2023-03-05T13:17:37;6.60;77.16
66144;SHT31;52947;50.842;6.084;2023-03-05T13:20:26;6.43;76.84
66144;SHT31;52947;50.842;6.084;2023-03-05T13:23:14;6.37;77.46
66144;SHT31;52947;50.842;6.084;2023-03-05T13:25:43;6.30;77.30
66144;SHT31;52947;50.842;6.084;2023-03-05T13:28:13;6.28;77.30
66144;SHT31;52947;50.842;6.084;2023-03-05T13:30:44;6.22;77.16
66144;SHT31;52947;50.842;6.084;2023-03-05T13:33:16;6.16;77.66
66144;SHT31;52947;50.842;6.084;2023-03-05T13:35:45;6.11;78.04
66144;SHT31;52947;50.842;6.084;2023-03-05T13:38:21;5.95;78.51
66144;SHT31;52947;50.842;6.084;2023-03-05T13:41:05;5.82;78.90
66144;SHT31;52947;50.842;6.084;2023-03-05T13:43:33;5.72;79.41
66144;SHT31;52947;50.842;6.084;2023-03-05T13:46:01;5.67;79.84
66144;SHT31;52947;50.842;6.084;2023-03-05T13:48:30;5.50;79.93
66144;SHT31;52947;50.842;6.084;2023-03-05T13:50:58;5.48;80.18
66144;SHT31;52947;50.842;6.084;2023-03-05T13:53:27;5.52;80.26
66144;SHT31;52947;50.842;6.084;2023-03-05T13:55:57;5.47;80.39
66144;SHT31;52947;50.842;6.084;2023-03-05T13:58:47;5.44;80.46
66144;SHT31;52947;50.842;6.084;2023-03-05T14:01:25;5.36;80.96
66144;SHT31;52947;50.842;6.084;2023-03-05T14:03:56;5.30;81.82
66144;SHT31;52947;50.842;6.084;2023-03-05T14:06:26;5.09;83.08
66144;SHT31;52947;50.842;6.084;2023-03-05T14:09:03;4.99;83.35
66144;SHT31;52947;50.842;6.084;2023-03-05T14:11:33;5.01;83.51
66144;SHT31;52947;50.842;6.084;2023-03-05T14:14:06;4.97;83.75
66144;SHT31;52947;50.842;6.084;2023-03-05T14:16:34;4.93;83.77
66144;SHT31;52947;50.842;6.084;2023-03-05T14:19:04;4.95;83.95
66144;SHT31;52947;50.842;6.084;2023-03-05T14:21:45;4.93;84.22
66144;SHT31;52947;50.842;6.084;2023-03-05T14:24:20;4.92;83.81
66144;SHT31;52947;50.842;6.084;2023-03-05T14:26:51;5.03;83.82
66144;SHT31;52947;50.842;6.084;2023-03-05T14:29:21;4.96;83.50
66144;SHT31;52947;50.842;6.084;2023-03-05T14:31:51;5.01;83.78
66144;SHT31;52947;50.842;6.084;2023-03-05T14:34:25;5.05;83.66
66144;SHT31;52947;50.842;6.084;2023-03-05T14:36:56;5.07;83.62
66144;SHT31;52947;50.842;6.084;2023-03-05T14:39:30;4.97;83.64
66144;SHT31;52947;50.842;6.084;2023-03-05T14:42:24;4.99;84.01
66144;SHT31;52947;50.842;6.084;2023-03-05T14:44:53;5.05;84.00
66144;SHT31;52947;50.842;6.084;2023-03-05T14:47:21;5.12;83.92
66144;SHT31;52947;50.842;6.084;2023-03-05T14:49:51;5.13;83.74
66144;SHT31;52947;50.842;6.084;2023-03-05T14:52:19;5.22;83.92
66144;SHT31;52947;50.842;6.084;2023-03-05T14:54:48;5.20;83.90
66144;SHT31;52947;50.842;6.084;2023-03-05T14:57:19;5.23;83.72
66144;SHT31;52947;50.842;6.084;2023-03-05T14:59:48;5.23;83.79
66144;SHT31;52947;50.842;6.084;2023-03-05T15:02:18;5.36;83.57
66144;SHT31;52947;50.842;6.084;2023-03-05T15:04:46;5.47;83.28
66144;SHT31;52947;50.842;6.084;2023-03-05T15:07:22;5.48;83.76
66144;SHT31;52947;50.842;6.084;2023-03-05T15:09:50;5.54;83.24
66144;SHT31;52947;50.842;6.084;2023-03-05T15:12:18;5.55;81.32
66144;SHT31;52947;50.842;6.084;2023-03-05T15:14:50;5.54;81.57
66144;SHT31;52947;50.842;6.084;2023-03-05T15:17:21;5.39;81.32
66144;SHT31;52947;50.842;6.084;2023-03-05T15:19:49;5.39;81.63
66144;SHT31;52947;50.842;6.084;2023-03-05T15:22:20;5.40;81.42
66144;SHT31;52947;50.842;6.084;2023-03-05T15:24:48;5.37;81.07
66144;SHT31;52947;50.842;6.084;2023-03-05T15:27:16;5.30;80.80
66144;SHT31;52947;50.842;6.084;2023-03-05T15:29:44;5.17;80.46
66144;SHT31;52947;50.842;6.084;2023-03-05T15:32:12;5.15;81.12
66144;SHT31;52947;50.842;6.084;2023-03-05T15:34:40;5.12;80.90
66144;SHT31;52947;50.842;6.084;2023-03-05T15:37:08;5.13;81.37
66144;SHT31;52947;50.842;6.084;2023-03-05T15:39:37;5.12;81.25
66144;SHT31;52947;50.842;6.084;2023-03-05T15:42:05;5.17;81.09
66144;SHT31;52947;50.842;6.084;2023-03-05T15:44:33;5.15;80.94
66144;SHT31;52947;50.842;6.084;2023-03-05T15:47:01;5.05;81.14
66144;SHT31;52947;50.842;6.084;2023-03-05T15:49:29;5.05;80.63
66144;SHT31;52947;50.842;6.084;2023-03-05T15:51:57;5.12;80.92
66144;SHT31;52947;50.842;6.084;2023-03-05T15:54:25;5.03;81.29
66144;SHT31;52947;50.842;6.084;2023-03-05T15:56:55;4.90;81.33
66144;SHT31;52947;50.842;6.084;2023-03-05T15:59:23;4.93;81.38
66144;SHT31;52947;50.842;6.084;2023-03-05T16:01:52;4.99;81.32
66144;SHT31;52947;50.842;6.084;2023-03-05T16:04:20;4.88;81.02
66144;SHT31;52947;50.842;6.084;2023-03-05T16:06:48;4.69;81.27
66144;SHT31;52947;50.842;6.084;2023-03-05T16:09:18;4.66;81.87
66144;SHT31;52947;50.842;6.084;2023-03-05T16:11:47;4.57;81.96
66144;SHT31;52947;50.842;6.084;2023-03-05T16:14:21;4.57;82.16
66144;SHT31;52947;50.842;6.084;2023-03-05T16:16:51;4.52;81.96